sensor_id;sensor_type;location;lat;lon;timestamp;P1;durP1;ratioP1;P2;durP2;ratioP2
82336;SDS011;72847;56.880;60.614;2023-10-08T00:01:52;11.50;;;9.75;;
82336;SDS011;72847;56.880;60.614;2023-10-08T00:04:20;10.38;;;9.43;;
82336;SDS011;72847;56.880;60.614;2023-10-08T00:06:45;12.77;;;8.93;;
82336;SDS011;72847;56.880;60.614;2023-10-08T00:09:17;14.73;;;10.05;;
82336;SDS011;72847;56.880;60.614;2023-10-08T00:11:45;12.18;;;7.10;;
82336;SDS011;72847;56.880;60.614;2023-10-08T00:14:16;11.27;;;7.88;;
82336;SDS011;72847;56.880;60.614;2023-10-08T00:16:46;11.93;;;9.00;;
82336;SDS011;72847;56.880;60.614;2023-10-08T00:19:15;10.82;;;8.82;;
82336;SDS011;72847;56.880;60.614;2023-10-08T00:21:40;13.02;;;10.60;;
82336;SDS011;72847;56.880;60.614;2023-10-08T00:24:09;12.20;;;10.10;;
82336;SDS011;72847;56.880;60.614;2023-10-08T00:26:35;11.43;;;10.23;;
82336;SDS011;72847;56.880;60.614;2023-10-08T00:29:05;12.05;;;7.18;;
82336;SDS011;72847;56.880;60.614;2023-10-08T00:31:46;11.15;;;10.05;;
82336;SDS011;72847;56.880;60.614;2023-10-08T00:34:13;12.77;;;10.05;;
82336;SDS011;72847;56.880;60.614;2023-10-08T00:36:44;13.27;;;10.73;;
82336;SDS011;72847;56.880;60.614;2023-10-08T00:39:10;15.15;;;9.25;;
82336;SDS011;72847;56.880;60.614;2023-10-08T00:41:45;11.85;;;10.68;;
82336;SDS011;72847;56.880;60.614;2023-10-08T00:44:11;9.95;;;8.65;;
82336;SDS011;72847;56.880;60.614;2023-10-08T00:46:39;10.77;;;9.77;;
82336;SDS011;72847;56.880;60.614;2023-10-08T00:49:12;12.07;;;11.00;;
82336;SDS011;72847;56.880;60.614;2023-10-08T00:51:47;11.43;;;9.90;;
82336;SDS011;72847;56.880;60.614;2023-10-08T00:54:13;11.52;;;8.35;;
82336;SDS011;72847;56.880;60.614;2023-10-08T00:56:44;13.13;;;10.25;;
82336;SDS011;72847;56.880;60.614;2023-10-08T00:59:23;10.88;;;9.77;;
82336;SDS011;72847;56.880;60.614;2023-10-08T01:01:49;12.40;;;9.60;;
82336;SDS011;72847;56.880;60.614;2023-10-08T01:04:23;11.65;;;7.25;;
82336;SDS011;72847;56.880;60.614;2023-10-08T01:06:54;12.80;;;10.23;;
82336;SDS011;72847;56.880;60.614;2023-10-08T01:09:24;13.38;;;10.35;;
82336;SDS011;72847;56.880;60.614;2023-10-08T01:14:57;13.55;;;8.20;;
82336;SDS011;72847;56.880;60.614;2023-10-08T01:17:30;11.85;;;9.82;;
82336;SDS011;72847;56.880;60.614;2023-10-08T01:19:57;12.57;;;11.30;;
82336;SDS011;72847;56.880;60.614;2023-10-08T01:22:25;12.35;;;9.50;;
82336;SDS011;72847;56.880;60.614;2023-10-08T01:24:54;13.95;;;10.25;;
82336;SDS011;72847;56.880;60.614;2023-10-08T01:27:19;12.98;;;10.13;;
82336;SDS011;72847;56.880;60.614;2023-10-08T01:29:48;16.67;;;13.30;;
82336;SDS011;72847;56.880;60.614;2023-10-08T01:32:17;17.05;;;11.50;;
82336;SDS011;72847;56.880;60.614;2023-10-08T01:34:44;12.00;;;9.35;;
82336;SDS011;72847;56.880;60.614;2023-10-08T01:37:12;13.68;;;9.82;;
82336;SDS011;72847;56.880;60.614;2023-10-08T01:39:38;12.93;;;10.55;;
82336;SDS011;72847;56.880;60.614;2023-10-08T01:44:40;14.65;;;10.10;;
82336;SDS011;72847;56.880;60.614;2023-10-08T01:47:05;13.90;;;12.23;;
82336;SDS011;72847;56.880;60.614;2023-10-08T01:49:31;12.15;;;11.05;;
82336;SDS011;72847;56.880;60.614;2023-10-08T01:51:58;14.10;;;10.70;;
82336;SDS011;72847;56.880;60.614;2023-10-08T01:54:24;13.68;;;11.32;;
82336;SDS011;72847;56.880;60.614;2023-10-08T01:56:51;13.88;;;11.65;;
82336;SDS011;72847;56.880;60.614;2023-10-08T01:59:16;16.13;;;13.23;;
82336;SDS011;72847;56.880;60.614;2023-10-08T02:01:42;17.45;;;11.23;;
82336;SDS011;72847;56.880;60.614;2023-10-08T02:04:08;16.45;;;11.60;;
82336;SDS011;72847;56.880;60.614;2023-10-08T02:06:34;13.82;;;11.25;;
82336;SDS011;72847;56.880;60.614;2023-10-08T02:09:00;14.75;;;12.13;;
82336;SDS011;72847;56.880;60.614;2023-10-08T02:11:40;13.95;;;10.77;;
82336;SDS011;72847;56.880;60.614;2023-10-08T02:14:05;14.77;;;11.32;;
82336;SDS011;72847;56.880;60.614;2023-10-08T02:16:32;15.57;;;13.40;;
82336;SDS011;72847;56.880;60.614;2023-10-08T02:18:58;16.63;;;12.68;;
82336;SDS011;72847;56.880;60.614;2023-10-08T02:21:24;13.40;;;11.55;;
82336;SDS011;72847;56.880;60.614;2023-10-08T02:23:50;13.57;;;11.43;;
82336;SDS011;72847;56.880;60.614;2023-10-08T02:26:17;14.43;;;10.15;;
82336;SDS011;72847;56.880;60.614;2023-10-08T02:28:44;10.27;;;9.27;;
82336;SDS011;72847;56.880;60.614;2023-10-08T02:31:09;13.20;;;10.75;;
82336;SDS011;72847;56.880;60.614;2023-10-08T02:33:34;12.50;;;11.27;;
82336;SDS011;72847;56.880;60.614;2023-10-08T02:36:02;12.23;;;10.45;;
82336;SDS011;72847;56.880;60.614;2023-10-08T02:38:29;11.98;;;10.40;;
82336;SDS011;72847;56.880;60.614;2023-10-08T02:40:55;14.25;;;10.48;;
82336;SDS011;72847;56.880;60.614;2023-10-08T02:43:21;14.07;;;11.60;;
82336;SDS011;72847;56.880;60.614;2023-10-08T02:45:48;12.52;;;10.40;;
82336;SDS011;72847;56.880;60.614;2023-10-08T02:48:14;14.85;;;11.88;;
82336;SDS011;72847;56.880;60.614;2023-10-08T02:50:44;13.30;;;12.05;;
82336;SDS011;72847;56.880;60.614;2023-10-08T02:53:10;10.80;;;8.52;;
82336;SDS011;72847;56.880;60.614;2023-10-08T02:55:39;15.90;;;13.40;;
82336;SDS011;72847;56.880;60.614;2023-10-08T02:58:12;14.13;;;10.07;;
82336;SDS011;72847;56.880;60.614;2023-10-08T03:00:42;12.57;;;11.30;;
82336;SDS011;72847;56.880;60.614;2023-10-08T03:03:08;12.02;;;10.77;;
82336;SDS011;72847;56.880;60.614;2023-10-08T03:05:47;12.90;;;9.88;;
82336;SDS011;72847;56.880;60.614;2023-10-08T03:08:16;10.63;;;8.85;;
82336;SDS011;72847;56.880;60.614;2023-10-08T03:10:45;14.05;;;10.48;;
82336;SDS011;72847;56.880;60.614;2023-10-08T03:13:13;11.27;;;8.70;;
82336;SDS011;72847;56.880;60.614;2023-10-08T03:15:40;14.55;;;10.48;;
82336;SDS011;72847;56.880;60.614;2023-10-08T03:18:12;12.65;;;9.88;;
82336;SDS011;72847;56.880;60.614;2023-10-08T03:20:40;12.70;;;10.18;;
82336;SDS011;72847;56.880;60.614;2023-10-08T03:23:09;13.07;;;10.00;;
82336;SDS011;72847;56.880;60.614;2023-10-08T03:25:43;12.02;;;10.85;;
82336;SDS011;72847;56.880;60.614;2023-10-08T03:28:11;13.45;;;12.07;;
82336;SDS011;72847;56.880;60.614;2023-10-08T03:30:41;15.35;;;12.07;;
82336;SDS011;72847;56.880;60.614;2023-10-08T03:33:18;11.15;;;10.00;;
82336;SDS011;72847;56.880;60.614;2023-10-08T03:35:52;17.85;;;12.27;;
82336;SDS011;72847;56.880;60.614;2023-10-08T03:38:21;15.95;;;10.15;;
82336;SDS011;72847;56.880;60.614;2023-10-08T03:43:22;11.63;;;9.85;;
82336;SDS011;72847;56.880;60.614;2023-10-08T03:45:59;16.23;;;12.13;;
82336;SDS011;72847;56.880;60.614;2023-10-08T03:48:24;15.95;;;11.95;;
82336;SDS011;72847;56.880;60.614;2023-10-08T03:50:50;13.23;;;10.23;;
82336;SDS011;72847;56.880;60.614;2023-10-08T03:53:31;12.00;;;8.88;;
82336;SDS011;72847;56.880;60.614;2023-10-08T03:55:59;13.32;;;10.68;;
82336;SDS011;72847;56.880;60.614;2023-10-08T03:58:30;12.15;;;10.05;;
82336;SDS011;72847;56.880;60.614;2023-10-08T04:00:59;14.93;;;9.88;;
82336;SDS011;72847;56.880;60.614;2023-10-08T04:03:36;13.10;;;8.75;;
82336;SDS011;72847;56.880;60.614;2023-10-08T04:06:17;17.42;;;9.40;;
82336;SDS011;72847;56.880;60.614;2023-10-08T04:08:47;16.10;;;8.57;;
82336;SDS011;72847;56.880;60.614;2023-10-08T04:11:26;14.05;;;12.57;;
82336;SDS011;72847;56.880;60.614;2023-10-08T04:14:01;13.00;;;11.23;;
82336;SDS011;72847;56.880;60.614;2023-10-08T04:16:31;12.50;;;9.40;;
82336;SDS011;72847;56.880;60.614;2023-10-08T04:19:01;12.50;;;11.05;;
82336;SDS011;72847;56.880;60.614;2023-10-08T04:21:28;10.80;;;9.00;;
82336;SDS011;72847;56.880;60.614;2023-10-08T04:23:53;14.13;;;10.95;;
82336;SDS011;72847;56.880;60.614;2023-10-08T04:26:22;13.65;;;10.70;;
82336;SDS011;72847;56.880;60.614;2023-10-08T04:28:55;13.65;;;11.32;;
82336;SDS011;72847;56.880;60.614;2023-10-08T04:31:25;18.52;;;11.23;;
82336;SDS011;72847;56.880;60.614;2023-10-08T04:33:53;15.20;;;11.93;;
82336;SDS011;72847;56.880;60.614;2023-10-08T04:36:19;10.70;;;9.07;;
82336;SDS011;72847;56.880;60.614;2023-10-08T04:38:45;13.07;;;10.35;;
82336;SDS011;72847;56.880;60.614;2023-10-08T04:41:16;12.45;;;9.60;;
82336;SDS011;72847;56.880;60.614;2023-10-08T04:43:45;10.32;;;9.30;;
82336;SDS011;72847;56.880;60.614;2023-10-08T04:46:10;11.77;;;10.00;;
82336;SDS011;72847;56.880;60.614;2023-10-08T04:48:47;7.53;;;6.75;;
82336;SDS011;72847;56.880;60.614;2023-10-08T04:51:15;11.27;;;7.78;;
82336;SDS011;72847;56.880;60.614;2023-10-08T04:53:40;9.50;;;8.75;;
82336;SDS011;72847;56.880;60.614;2023-10-08T04:56:09;9.68;;;8.85;;
82336;SDS011;72847;56.880;60.614;2023-10-08T04:58:45;9.40;;;8.57;;
82336;SDS011;72847;56.880;60.614;2023-10-08T05:01:13;8.93;;;8.10;;
82336;SDS011;72847;56.880;60.614;2023-10-08T05:04:14;10.77;;;9.90;;
82336;SDS011;72847;56.880;60.614;2023-10-08T05:06:51;10.27;;;9.40;;
82336;SDS011;72847;56.880;60.614;2023-10-08T05:09:26;7.20;;;6.32;;
82336;SDS011;72847;56.880;60.614;2023-10-08T05:12:04;7.43;;;6.78;;
82336;SDS011;72847;56.880;60.614;2023-10-08T05:14:59;6.97;;;6.40;;
82336;SDS011;72847;56.880;60.614;2023-10-08T05:17:40;6.78;;;5.93;;
82336;SDS011;72847;56.880;60.614;2023-10-08T05:20:20;8.52;;;5.95;;
82336;SDS011;72847;56.880;60.614;2023-10-08T05:23:11;9.35;;;8.40;;
82336;SDS011;72847;56.880;60.614;2023-10-08T05:25:46;9.77;;;8.77;;
82336;SDS011;72847;56.880;60.614;2023-10-08T05:28:34;7.93;;;7.22;;
82336;SDS011;72847;56.880;60.614;2023-10-08T05:31:13;8.93;;;6.88;;
82336;SDS011;72847;56.880;60.614;2023-10-08T05:33:42;7.57;;;6.97;;
82336;SDS011;72847;56.880;60.614;2023-10-08T05:36:26;10.63;;;6.68;;
82336;SDS011;72847;56.880;60.614;2023-10-08T05:39:10;8.00;;;6.65;;
82336;SDS011;72847;56.880;60.614;2023-10-08T05:41:56;8.07;;;7.38;;
82336;SDS011;72847;56.880;60.614;2023-10-08T05:44:39;6.68;;;6.13;;
82336;SDS011;72847;56.880;60.614;2023-10-08T05:47:05;11.57;;;10.68;;
82336;SDS011;72847;56.880;60.614;2023-10-08T05:49:37;6.90;;;5.78;;
82336;SDS011;72847;56.880;60.614;2023-10-08T05:52:18;6.10;;;5.57;;
82336;SDS011;72847;56.880;60.614;2023-10-08T05:54:51;7.00;;;6.38;;
82336;SDS011;72847;56.880;60.614;2023-10-08T05:57:34;6.13;;;5.60;;
82336;SDS011;72847;56.880;60.614;2023-10-08T06:00:11;7.30;;;6.68;;
82336;SDS011;72847;56.880;60.614;2023-10-08T06:02:40;6.72;;;6.13;;
82336;SDS011;72847;56.880;60.614;2023-10-08T06:05:11;6.10;;;5.53;;
82336;SDS011;72847;56.880;60.614;2023-10-08T06:07:47;7.65;;;7.03;;
82336;SDS011;72847;56.880;60.614;2023-10-08T06:10:28;7.68;;;5.15;;
82336;SDS011;72847;56.880;60.614;2023-10-08T06:15:44;8.80;;;8.20;;
82336;SDS011;72847;56.880;60.614;2023-10-08T06:20:53;7.15;;;6.40;;
82336;SDS011;72847;56.880;60.614;2023-10-08T06:23:23;7.22;;;6.53;;
82336;SDS011;72847;56.880;60.614;2023-10-08T06:25:49;9.48;;;8.68;;
82336;SDS011;72847;56.880;60.614;2023-10-08T06:28:21;5.40;;;4.22;;
82336;SDS011;72847;56.880;60.614;2023-10-08T06:30:51;5.95;;;5.30;;
82336;SDS011;72847;56.880;60.614;2023-10-08T06:33:20;7.15;;;6.55;;
82336;SDS011;72847;56.880;60.614;2023-10-08T06:35:46;6.93;;;6.35;;
82336;SDS011;72847;56.880;60.614;2023-10-08T06:38:26;5.05;;;4.57;;
82336;SDS011;72847;56.880;60.614;2023-10-08T06:40:52;6.03;;;5.30;;
82336;SDS011;72847;56.880;60.614;2023-10-08T06:43:18;7.45;;;5.45;;
82336;SDS011;72847;56.880;60.614;2023-10-08T06:45:49;7.38;;;6.70;;
82336;SDS011;72847;56.880;60.614;2023-10-08T06:48:21;6.20;;;4.68;;
82336;SDS011;72847;56.880;60.614;2023-10-08T06:50:48;5.80;;;5.35;;
82336;SDS011;72847;56.880;60.614;2023-10-08T06:53:14;5.45;;;5.05;;
82336;SDS011;72847;56.880;60.614;2023-10-08T06:55:40;6.03;;;5.53;;
82336;SDS011;72847;56.880;60.614;2023-10-08T06:58:06;6.50;;;5.90;;
82336;SDS011;72847;56.880;60.614;2023-10-08T07:00:33;5.97;;;5.53;;
82336;SDS011;72847;56.880;60.614;2023-10-08T07:03:05;5.65;;;5.35;;
82336;SDS011;72847;56.880;60.614;2023-10-08T07:05:35;5.28;;;4.85;;
82336;SDS011;72847;56.880;60.614;2023-10-08T07:08:08;5.30;;;4.80;;
82336;SDS011;72847;56.880;60.614;2023-10-08T07:10:38;6.57;;;6.05;;
82336;SDS011;72847;56.880;60.614;2023-10-08T07:13:03;7.43;;;6.95;;
82336;SDS011;72847;56.880;60.614;2023-10-08T07:15:29;4.18;;;3.78;;
82336;SDS011;72847;56.880;60.614;2023-10-08T07:17:55;6.88;;;6.45;;
82336;SDS011;72847;56.880;60.614;2023-10-08T07:20:21;6.25;;;5.00;;
82336;SDS011;72847;56.880;60.614;2023-10-08T07:22:49;5.53;;;5.22;;
82336;SDS011;72847;56.880;60.614;2023-10-08T07:25:21;5.53;;;5.13;;
82336;SDS011;72847;56.880;60.614;2023-10-08T07:27:46;4.75;;;4.45;;
82336;SDS011;72847;56.880;60.614;2023-10-08T07:30:12;5.15;;;4.85;;
82336;SDS011;72847;56.880;60.614;2023-10-08T07:32:38;5.55;;;5.13;;
82336;SDS011;72847;56.880;60.614;2023-10-08T07:35:06;6.03;;;5.53;;
82336;SDS011;72847;56.880;60.614;2023-10-08T07:37:50;5.78;;;5.38;;
82336;SDS011;72847;56.880;60.614;2023-10-08T07:40:16;5.63;;;5.13;;
82336;SDS011;72847;56.880;60.614;2023-10-08T07:42:41;5.03;;;4.63;;
82336;SDS011;72847;56.880;60.614;2023-10-08T07:45:07;6.57;;;4.90;;
82336;SDS011;72847;56.880;60.614;2023-10-08T07:47:32;5.35;;;4.85;;
82336;SDS011;72847;56.880;60.614;2023-10-08T07:49:58;3.90;;;3.40;;
82336;SDS011;72847;56.880;60.614;2023-10-08T07:52:24;6.68;;;6.25;;
82336;SDS011;72847;56.880;60.614;2023-10-08T07:54:49;5.82;;;5.03;;
82336;SDS011;72847;56.880;60.614;2023-10-08T07:57:15;4.07;;;3.70;;
82336;SDS011;72847;56.880;60.614;2023-10-08T07:59:51;5.95;;;5.45;;
82336;SDS011;72847;56.880;60.614;2023-10-08T08:02:19;4.53;;;4.22;;
82336;SDS011;72847;56.880;60.614;2023-10-08T08:04:50;5.05;;;4.65;;
82336;SDS011;72847;56.880;60.614;2023-10-08T08:07:16;6.55;;;6.15;;
82336;SDS011;72847;56.880;60.614;2023-10-08T08:09:51;3.72;;;3.45;;
82336;SDS011;72847;56.880;60.614;2023-10-08T08:14:42;3.87;;;3.57;;
82336;SDS011;72847;56.880;60.614;2023-10-08T08:17:08;4.85;;;2.50;;
82336;SDS011;72847;56.880;60.614;2023-10-08T08:19:43;5.13;;;4.72;;
82336;SDS011;72847;56.880;60.614;2023-10-08T08:22:15;5.25;;;4.85;;
82336;SDS011;72847;56.880;60.614;2023-10-08T08:24:49;5.10;;;4.70;;
82336;SDS011;72847;56.880;60.614;2023-10-08T08:27:18;6.78;;;6.32;;
82336;SDS011;72847;56.880;60.614;2023-10-08T08:29:51;5.55;;;5.15;;
82336;SDS011;72847;56.880;60.614;2023-10-08T08:32:21;7.00;;;5.05;;
82336;SDS011;72847;56.880;60.614;2023-10-08T08:34:47;4.22;;;3.83;;
82336;SDS011;72847;56.880;60.614;2023-10-08T08:37:15;6.35;;;5.88;;
82336;SDS011;72847;56.880;60.614;2023-10-08T08:39:41;7.03;;;6.43;;
82336;SDS011;72847;56.880;60.614;2023-10-08T08:42:07;5.57;;;5.18;;
82336;SDS011;72847;56.880;60.614;2023-10-08T08:44:36;6.32;;;5.90;;
82336;SDS011;72847;56.880;60.614;2023-10-08T08:47:10;5.50;;;5.20;;
82336;SDS011;72847;56.880;60.614;2023-10-08T08:49:39;5.90;;;5.50;;
82336;SDS011;72847;56.880;60.614;2023-10-08T08:52:05;7.00;;;6.30;;
82336;SDS011;72847;56.880;60.614;2023-10-08T08:54:30;6.07;;;5.47;;
82336;SDS011;72847;56.880;60.614;2023-10-08T08:56:59;5.85;;;5.35;;
82336;SDS011;72847;56.880;60.614;2023-10-08T08:59:29;6.30;;;5.90;;
82336;SDS011;72847;56.880;60.614;2023-10-08T09:01:56;6.22;;;5.60;;
82336;SDS011;72847;56.880;60.614;2023-10-08T09:04:29;5.93;;;5.50;;
82336;SDS011;72847;56.880;60.614;2023-10-08T09:06:55;3.20;;;2.92;;
82336;SDS011;72847;56.880;60.614;2023-10-08T09:09:20;4.93;;;4.55;;
82336;SDS011;72847;56.880;60.614;2023-10-08T09:11:49;5.72;;;4.35;;
82336;SDS011;72847;56.880;60.614;2023-10-08T09:14:21;6.18;;;5.78;;
82336;SDS011;72847;56.880;60.614;2023-10-08T09:19:13;5.50;;;5.13;;
82336;SDS011;72847;56.880;60.614;2023-10-08T09:21:43;6.35;;;5.97;;
82336;SDS011;72847;56.880;60.614;2023-10-08T09:24:09;4.90;;;4.53;;
82336;SDS011;72847;56.880;60.614;2023-10-08T09:26:36;5.53;;;5.10;;
82336;SDS011;72847;56.880;60.614;2023-10-08T09:29:04;4.95;;;4.55;;
82336;SDS011;72847;56.880;60.614;2023-10-08T09:31:29;5.63;;;5.13;;
82336;SDS011;72847;56.880;60.614;2023-10-08T09:34:00;6.18;;;5.88;;
82336;SDS011;72847;56.880;60.614;2023-10-08T09:36:28;6.10;;;5.68;;
82336;SDS011;72847;56.880;60.614;2023-10-08T09:39:00;5.90;;;5.50;;
82336;SDS011;72847;56.880;60.614;2023-10-08T09:43:51;5.03;;;4.63;;
82336;SDS011;72847;56.880;60.614;2023-10-08T09:46:19;4.93;;;4.53;;
82336;SDS011;72847;56.880;60.614;2023-10-08T09:48:51;6.80;;;6.43;;
82336;SDS011;72847;56.880;60.614;2023-10-08T09:51:18;4.22;;;3.92;;
82336;SDS011;72847;56.880;60.614;2023-10-08T09:53:47;5.25;;;4.95;;
82336;SDS011;72847;56.880;60.614;2023-10-08T09:56:14;5.80;;;5.15;;
82336;SDS011;72847;56.880;60.614;2023-10-08T09:58:43;6.82;;;6.53;;
82336;SDS011;72847;56.880;60.614;2023-10-08T10:01:09;5.60;;;5.22;;
82336;SDS011;72847;56.880;60.614;2023-10-08T10:03:35;5.38;;;4.68;;
82336;SDS011;72847;56.880;60.614;2023-10-08T10:06:01;4.90;;;4.60;;
82336;SDS011;72847;56.880;60.614;2023-10-08T10:08:26;4.90;;;4.57;;
82336;SDS011;72847;56.880;60.614;2023-10-08T10:10:59;5.22;;;4.82;;
82336;SDS011;72847;56.880;60.614;2023-10-08T10:13:28;5.90;;;5.38;;
82336;SDS011;72847;56.880;60.614;2023-10-08T10:15:54;6.97;;;6.68;;
82336;SDS011;72847;56.880;60.614;2023-10-08T10:21:39;5.40;;;5.07;;
82336;SDS011;72847;56.880;60.614;2023-10-08T10:23:45;6.03;;;5.55;;
82336;SDS011;72847;56.880;60.614;2023-10-08T10:26:24;5.93;;;5.55;;
82336;SDS011;72847;56.880;60.614;2023-10-08T10:31:35;6.43;;;5.82;;
82336;SDS011;72847;56.880;60.614;2023-10-08T10:34:06;8.38;;;7.88;;
82336;SDS011;72847;56.880;60.614;2023-10-08T10:36:35;5.97;;;5.57;;
82336;SDS011;72847;56.880;60.614;2023-10-08T10:39:00;6.68;;;6.22;;
82336;SDS011;72847;56.880;60.614;2023-10-08T10:41:27;4.57;;;4.38;;
82336;SDS011;72847;56.880;60.614;2023-10-08T10:43:53;6.50;;;6.10;;
82336;SDS011;72847;56.880;60.614;2023-10-08T10:46:18;5.68;;;5.28;;
82336;SDS011;72847;56.880;60.614;2023-10-08T10:48:54;6.72;;;6.32;;
82336;SDS011;72847;56.880;60.614;2023-10-08T10:51:32;4.88;;;4.57;;
82336;SDS011;72847;56.880;60.614;2023-10-08T10:53:59;6.07;;;5.68;;
82336;SDS011;72847;56.880;60.614;2023-10-08T10:56:34;5.70;;;5.35;;
82336;SDS011;72847;56.880;60.614;2023-10-08T10:59:06;5.03;;;4.65;;
82336;SDS011;72847;56.880;60.614;2023-10-08T11:01:47;5.72;;;5.38;;
82336;SDS011;72847;56.880;60.614;2023-10-08T11:04:17;5.15;;;4.85;;
82336;SDS011;72847;56.880;60.614;2023-10-08T11:06:44;4.18;;;3.92;;
82336;SDS011;72847;56.880;60.614;2023-10-08T11:09:10;5.55;;;5.15;;
82336;SDS011;72847;56.880;60.614;2023-10-08T11:11:44;5.85;;;4.75;;
82336;SDS011;72847;56.880;60.614;2023-10-08T11:14:12;4.70;;;4.40;;
82336;SDS011;72847;56.880;60.614;2023-10-08T11:16:44;8.02;;;7.53;;
82336;SDS011;72847;56.880;60.614;2023-10-08T11:19:09;5.25;;;4.13;;
82336;SDS011;72847;56.880;60.614;2023-10-08T11:21:50;3.83;;;3.63;;
82336;SDS011;72847;56.880;60.614;2023-10-08T11:24:26;4.47;;;4.28;;
82336;SDS011;72847;56.880;60.614;2023-10-08T11:26:52;4.38;;;4.05;;
82336;SDS011;72847;56.880;60.614;2023-10-08T11:29:32;5.18;;;4.88;;
82336;SDS011;72847;56.880;60.614;2023-10-08T11:31:58;4.30;;;4.00;;
82336;SDS011;72847;56.880;60.614;2023-10-08T11:34:31;4.97;;;4.68;;
82336;SDS011;72847;56.880;60.614;2023-10-08T11:37:01;4.18;;;3.97;;
82336;SDS011;72847;56.880;60.614;2023-10-08T11:39:35;3.72;;;3.47;;
82336;SDS011;72847;56.880;60.614;2023-10-08T11:42:10;4.97;;;4.57;;
82336;SDS011;72847;56.880;60.614;2023-10-08T11:45:01;5.47;;;5.10;;
82336;SDS011;72847;56.880;60.614;2023-10-08T11:47:46;5.35;;;5.05;;
82336;SDS011;72847;56.880;60.614;2023-10-08T11:50:14;4.63;;;4.32;;
82336;SDS011;72847;56.880;60.614;2023-10-08T11:52:42;5.80;;;5.43;;
82336;SDS011;72847;56.880;60.614;2023-10-08T11:55:08;4.55;;;4.25;;
82336;SDS011;72847;56.880;60.614;2023-10-08T11:57:33;6.15;;;5.75;;
82336;SDS011;72847;56.880;60.614;2023-10-08T12:00:01;4.50;;;4.22;;
82336;SDS011;72847;56.880;60.614;2023-10-08T12:02:27;5.88;;;5.53;;
82336;SDS011;72847;56.880;60.614;2023-10-08T12:04:54;4.28;;;4.05;;
82336;SDS011;72847;56.880;60.614;2023-10-08T12:07:22;4.72;;;4.43;;
82336;SDS011;72847;56.880;60.614;2023-10-08T12:09:52;2.92;;;2.72;;
82336;SDS011;72847;56.880;60.614;2023-10-08T12:12:19;5.82;;;5.25;;
82336;SDS011;72847;56.880;60.614;2023-10-08T12:14:48;5.32;;;4.97;;
82336;SDS011;72847;56.880;60.614;2023-10-08T12:17:14;7.22;;;6.82;;
82336;SDS011;72847;56.880;60.614;2023-10-08T12:19:42;7.65;;;7.25;;
82336;SDS011;72847;56.880;60.614;2023-10-08T12:22:08;4.13;;;3.75;;
82336;SDS011;72847;56.880;60.614;2023-10-08T12:24:33;6.22;;;5.93;;
82336;SDS011;72847;56.880;60.614;2023-10-08T12:26:59;4.07;;;3.78;;
82336;SDS011;72847;56.880;60.614;2023-10-08T12:29:24;5.45;;;5.05;;
82336;SDS011;72847;56.880;60.614;2023-10-08T12:31:51;4.65;;;4.35;;
82336;SDS011;72847;56.880;60.614;2023-10-08T12:34:18;6.43;;;6.03;;
82336;SDS011;72847;56.880;60.614;2023-10-08T12:36:43;5.10;;;4.80;;
82336;SDS011;72847;56.880;60.614;2023-10-08T12:39:11;8.25;;;7.63;;
82336;SDS011;72847;56.880;60.614;2023-10-08T12:41:42;5.22;;;4.93;;
82336;SDS011;72847;56.880;60.614;2023-10-08T12:44:09;5.70;;;5.20;;
82336;SDS011;72847;56.880;60.614;2023-10-08T12:46:34;7.88;;;7.18;;
82336;SDS011;72847;56.880;60.614;2023-10-08T12:49:00;5.70;;;5.28;;
82336;SDS011;72847;56.880;60.614;2023-10-08T12:51:26;5.65;;;5.35;;
82336;SDS011;72847;56.880;60.614;2023-10-08T12:53:56;5.65;;;5.25;;
82336;SDS011;72847;56.880;60.614;2023-10-08T12:56:46;5.40;;;4.97;;
82336;SDS011;72847;56.880;60.614;2023-10-08T12:59:13;3.83;;;3.42;;
82336;SDS011;72847;56.880;60.614;2023-10-08T13:01:49;6.53;;;6.13;;
82336;SDS011;72847;56.880;60.614;2023-10-08T13:04:19;6.07;;;5.68;;
82336;SDS011;72847;56.880;60.614;2023-10-08T13:06:52;5.78;;;5.45;;
82336;SDS011;72847;56.880;60.614;2023-10-08T13:09:22;5.97;;;5.57;;
82336;SDS011;72847;56.880;60.614;2023-10-08T13:11:47;6.57;;;6.05;;
82336;SDS011;72847;56.880;60.614;2023-10-08T13:14:12;6.63;;;6.28;;
82336;SDS011;72847;56.880;60.614;2023-10-08T13:16:38;4.82;;;4.53;;
82336;SDS011;72847;56.880;60.614;2023-10-08T13:19:03;5.60;;;5.20;;
82336;SDS011;72847;56.880;60.614;2023-10-08T13:21:29;6.15;;;5.75;;
82336;SDS011;72847;56.880;60.614;2023-10-08T13:23:56;5.25;;;4.88;;
82336;SDS011;72847;56.880;60.614;2023-10-08T13:26:22;3.40;;;3.10;;
82336;SDS011;72847;56.880;60.614;2023-10-08T13:28:49;5.32;;;5.03;;
82336;SDS011;72847;56.880;60.614;2023-10-08T13:31:15;5.30;;;5.00;;
82336;SDS011;72847;56.880;60.614;2023-10-08T13:33:42;4.70;;;4.40;;
82336;SDS011;72847;56.880;60.614;2023-10-08T13:36:11;5.78;;;5.43;;
82336;SDS011;72847;56.880;60.614;2023-10-08T13:38:38;5.72;;;5.35;;
82336;SDS011;72847;56.880;60.614;2023-10-08T13:41:06;6.45;;;5.93;;
82336;SDS011;72847;56.880;60.614;2023-10-08T13:43:39;5.00;;;4.63;;
82336;SDS011;72847;56.880;60.614;2023-10-08T13:46:06;5.43;;;5.03;;
82336;SDS011;72847;56.880;60.614;2023-10-08T13:48:38;6.43;;;6.13;;
82336;SDS011;72847;56.880;60.614;2023-10-08T13:51:04;5.65;;;5.38;;
82336;SDS011;72847;56.880;60.614;2023-10-08T13:53:33;2.42;;;1.60;;
82336;SDS011;72847;56.880;60.614;2023-10-08T13:56:01;5.43;;;5.18;;
82336;SDS011;72847;56.880;60.614;2023-10-08T13:58:31;7.47;;;7.07;;
82336;SDS011;72847;56.880;60.614;2023-10-08T14:00:59;4.00;;;3.80;;
82336;SDS011;72847;56.880;60.614;2023-10-08T14:03:28;5.25;;;4.78;;
82336;SDS011;72847;56.880;60.614;2023-10-08T14:05:56;6.53;;;6.22;;
82336;SDS011;72847;56.880;60.614;2023-10-08T14:08:25;4.78;;;4.38;;
82336;SDS011;72847;56.880;60.614;2023-10-08T14:10:53;6.00;;;5.50;;
82336;SDS011;72847;56.880;60.614;2023-10-08T14:13:21;4.88;;;4.57;;
82336;SDS011;72847;56.880;60.614;2023-10-08T14:15:47;5.55;;;5.15;;
82336;SDS011;72847;56.880;60.614;2023-10-08T14:18:20;6.18;;;5.80;;
82336;SDS011;72847;56.880;60.614;2023-10-08T14:20:51;5.70;;;5.50;;
82336;SDS011;72847;56.880;60.614;2023-10-08T14:23:19;5.47;;;5.20;;
82336;SDS011;72847;56.880;60.614;2023-10-08T14:25:47;3.92;;;3.63;;
82336;SDS011;72847;56.880;60.614;2023-10-08T14:28:15;5.13;;;4.72;;
82336;SDS011;72847;56.880;60.614;2023-10-08T14:30:49;5.00;;;4.70;;
82336;SDS011;72847;56.880;60.614;2023-10-08T14:33:18;5.97;;;5.65;;
82336;SDS011;72847;56.880;60.614;2023-10-08T14:35:49;5.18;;;4.85;;
82336;SDS011;72847;56.880;60.614;2023-10-08T14:38:33;5.38;;;5.07;;
82336;SDS011;72847;56.880;60.614;2023-10-08T14:41:17;7.95;;;6.22;;
82336;SDS011;72847;56.880;60.614;2023-10-08T14:44:01;4.88;;;4.47;;
82336;SDS011;72847;56.880;60.614;2023-10-08T14:46:29;5.90;;;5.47;;
82336;SDS011;72847;56.880;60.614;2023-10-08T14:48:56;5.55;;;5.18;;
82336;SDS011;72847;56.880;60.614;2023-10-08T14:51:23;5.30;;;4.95;;
82336;SDS011;72847;56.880;60.614;2023-10-08T14:53:49;8.10;;;7.43;;
82336;SDS011;72847;56.880;60.614;2023-10-08T14:56:15;6.57;;;6.28;;
82336;SDS011;72847;56.880;60.614;2023-10-08T14:58:41;3.00;;;2.35;;
82336;SDS011;72847;56.880;60.614;2023-10-08T15:01:06;6.25;;;5.85;;
82336;SDS011;72847;56.880;60.614;2023-10-08T15:03:32;5.82;;;5.50;;
82336;SDS011;72847;56.880;60.614;2023-10-08T15:05:57;3.08;;;2.53;;
82336;SDS011;72847;56.880;60.614;2023-10-08T15:08:22;5.03;;;4.70;;
82336;SDS011;72847;56.880;60.614;2023-10-08T15:10:48;6.43;;;5.97;;